Time;durP1;ratioP1;P1;durP2;ratioP2;P2;SDS_P1;SDS_P2;PMS_P1;PMS_P2;Temp;Humidity;BMP_temperature;BMP_pressure;BME280_temperature;BME280_humidity;BME280_pressure;Samples;Min_cycle;Max_cycle;Signal;HPM_P1;HPM_P2
2022/12/18 00:01:06;;;;;;;33.08;17.92;;;-1.70;99.90;;;;;;4988496;28;20068;-80
2022/12/18 00:03:33;;;;;;;30.77;15.48;;;-1.70;99.90;;;;;;4988549;28;20053;-80
2022/12/18 00:06:00;;;;;;;32.63;15.18;;;-1.70;99.90;;;;;;4989051;28;20050;-79
2022/12/18 00:08:27;;;;;;;30.40;13.32;;;-1.70;99.90;;;;;;4988833;28;20046;-79
2022/12/18 00:10:54;;;;;;;28.23;14.57;;;-1.50;99.90;;;;;;4983918;28;20042;-79
2022/12/18 00:13:21;;;;;;;25.45;13.05;;;-1.60;99.90;;;;;;4986367;28;20499;-79
2022/12/18 00:15:49;;;;;;;26.50;13.70;;;-1.70;99.90;;;;;;4988360;28;20034;-79
2022/12/18 00:18:16;;;;;;;25.92;13.95;;;-1.70;99.90;;;;;;4988923;28;20049;-79
2022/12/18 00:20:43;;;;;;;22.90;12.25;;;-1.70;99.90;;;;;;4971832;28;20513;-79
2022/12/18 00:23:10;;;;;;;23.20;11.85;;;-1.70;99.90;;;;;;4989994;28;20038;-79
2022/12/18 00:25:37;;;;;;;21.02;10.55;;;-1.80;99.90;;;;;;4987422;28;20046;-79
2022/12/18 00:28:05;;;;;;;21.45;10.55;;;-1.80;99.90;;;;;;4984774;28;20089;-79
2022/12/18 00:30:32;;;;;;;23.98;12.00;;;-1.70;99.90;;;;;;4971210;28;20386;-79
2022/12/18 00:33:00;;;;;;;29.95;14.75;;;-1.70;99.90;;;;;;4988883;28;20060;-79
2022/12/18 00:35:27;;;;;;;38.92;18.58;;;-1.70;99.90;;;;;;4989311;28;20407;-79
2022/12/18 00:37:54;;;;;;;37.20;18.30;;;-1.60;99.90;;;;;;4989100;28;20074;-80
2022/12/18 00:40:21;;;;;;;38.13;18.98;;;-1.60;99.90;;;;;;4994567;28;20407;-79
2022/12/18 00:42:56;;;;;;;32.67;16.60;;;-1.60;99.90;;;;;;4972982;28;20077;-79
2022/12/18 00:45:26;;;;;;;33.00;16.30;;;-1.70;99.90;;;;;;4971206;28;20046;-80
2022/12/18 00:47:53;;;;;;;31.83;14.88;;;-1.60;99.90;;;;;;4992535;28;20050;-79
2022/12/18 00:50:21;;;;;;;29.83;15.35;;;-1.70;99.90;;;;;;4992232;28;20117;-79
2022/12/18 00:52:48;;;;;;;27.58;13.73;;;-1.70;99.90;;;;;;4977975;28;20132;-80
2022/12/18 00:55:15;;;;;;;27.52;15.07;;;-1.60;99.90;;;;;;5007855;28;20509;-79
2022/12/18 00:57:42;;;;;;;29.13;15.27;;;-1.70;99.90;;;;;;4995430;28;20046;-79
2022/12/18 01:00:12;;;;;;;32.03;14.32;;;-1.70;99.90;;;;;;4981705;28;20050;-79
2022/12/18 01:02:38;;;;;;;31.10;15.45;;;-1.70;99.90;;;;;;4990671;28;20041;-79
2022/12/18 01:05:07;;;;;;;30.60;15.40;;;-1.70;99.90;;;;;;4974624;28;20050;-79
2022/12/18 01:07:35;;;;;;;31.50;15.15;;;-1.70;99.90;;;;;;4992612;28;20145;-79
2022/12/18 01:10:05;;;;;;;25.95;13.07;;;-1.70;99.90;;;;;;4976714;28;20745;-79
2022/12/18 01:12:32;;;;;;;23.23;11.93;;;-1.60;99.90;;;;;;4975268;28;20060;-79
2022/12/18 01:14:59;;;;;;;21.15;10.95;;;-1.50;99.90;;;;;;4974504;28;20042;-79
2022/12/18 01:17:25;;;;;;;25.85;13.02;;;-1.50;99.90;;;;;;4972768;28;20521;-79
2022/12/18 01:19:53;;;;;;;28.48;13.93;;;-1.40;99.90;;;;;;4992393;28;20097;-79
2022/12/18 01:22:20;;;;;;;25.42;12.85;;;-1.40;99.90;;;;;;4991592;28;20093;-80
2022/12/18 01:24:48;;;;;;;31.30;14.77;;;-1.40;99.90;;;;;;4995256;28;20046;-79
2022/12/18 01:27:16;;;;;;;28.85;14.27;;;-1.30;99.90;;;;;;4996132;28;20046;-79
2022/12/18 01:29:42;;;;;;;33.35;16.10;;;-1.20;99.90;;;;;;4974078;28;20042;-79
2022/12/18 01:32:10;;;;;;;28.33;14.25;;;-1.20;99.90;;;;;;4974501;28;20141;-79
2022/12/18 01:34:37;;;;;;;25.92;13.45;;;-1.20;99.90;;;;;;4987011;28;20042;-80
2022/12/18 01:37:04;;;;;;;28.25;12.93;;;-1.10;99.90;;;;;;4974289;28;20050;-79
2022/12/18 01:39:32;;;;;;;18.02;8.50;;;-1.10;99.90;;;;;;4991713;28;20407;-79
2022/12/18 01:42:04;;;;;;;17.55;8.20;;;-1.00;99.90;;;;;;5004845;28;20042;-79
2022/12/18 01:45:03;;;;;;;21.98;10.40;;;-0.90;99.90;;;;;;5011448;28;20052;-80
2022/12/18 01:47:37;;;;;;;19.02;9.93;;;-0.90;99.90;;;;;;4931627;29;20530;-79
2022/12/18 01:50:08;;;;;;;23.98;10.55;;;-0.90;99.90;;;;;;4974910;28;20055;-79
2022/12/18 01:52:36;;;;;;;20.35;10.70;;;-0.80;99.90;;;;;;4991188;28;20047;-79
2022/12/18 01:55:04;;;;;;;25.25;11.52;;;-0.80;99.90;;;;;;4974382;28;20056;-79
2022/12/18 01:57:33;;;;;;;23.55;11.90;;;-0.80;99.90;;;;;;4975755;28;20133;-79
2022/12/18 02:00:03;;;;;;;25.98;13.32;;;-0.80;99.90;;;;;;4979580;28;20054;-79
2022/12/18 02:02:41;;;;;;;21.90;11.60;;;-0.80;99.90;;;;;;4991237;28;20061;-80
2022/12/18 02:05:08;;;;;;;27.70;13.13;;;-0.80;99.90;;;;;;4989583;28;20409;-80
2022/12/18 02:07:45;;;;;;;26.48;13.13;;;-0.80;99.90;;;;;;4972300;28;20507;-79
2022/12/18 02:10:16;;;;;;;25.85;12.35;;;-0.80;99.90;;;;;;4973230;28;20046;-79
2022/12/18 02:12:49;;;;;;;24.45;12.18;;;-0.70;99.90;;;;;;4990988;28;20097;-79
2022/12/18 02:15:19;;;;;;;21.90;11.82;;;-0.70;99.90;;;;;;4995171;28;20047;-80
2022/12/18 02:17:53;;;;;;;21.35;11.35;;;-0.70;99.90;;;;;;4973041;28;20057;-79
2022/12/18 02:20:24;;;;;;;21.80;9.95;;;-0.70;99.90;;;;;;4982542;28;20066;-79
2022/12/18 02:23:08;;;;;;;15.73;8.05;;;-0.70;99.90;;;;;;4972157;28;20054;-79
2022/12/18 02:25:52;;;;;;;12.32;6.28;;;-0.60;99.90;;;;;;4988626;28;20050;-80
2022/12/18 02:28:21;;;;;;;13.40;6.38;;;-0.50;99.90;;;;;;4989711;28;20046;-79
2022/12/18 02:30:50;;;;;;;13.45;6.28;;;-0.40;99.90;;;;;;4977478;28;20069;-79
2022/12/18 02:33:18;;;;;;;12.10;5.80;;;-0.30;99.90;;;;;;4990128;28;20050;-79
2022/12/18 02:35:46;;;;;;;14.82;6.65;;;-0.30;99.90;;;;;;4973094;28;20142;-80
2022/12/18 02:38:14;;;;;;;13.63;6.40;;;-0.30;99.90;;;;;;4972613;28;20042;-79
2022/12/18 02:40:43;;;;;;;12.23;6.03;;;-0.20;99.90;;;;;;4964605;28;20053;-79
2022/12/18 02:43:16;;;;;;;12.60;6.18;;;-0.10;99.90;;;;;;4973484;28;20043;-80
2022/12/18 02:45:55;;;;;;;13.77;6.55;;;-0.10;99.90;;;;;;4972883;28;20057;-79
2022/12/18 02:48:26;;;;;;;14.88;6.40;;;0.00;99.90;;;;;;4973146;28;20576;-80
2022/12/18 02:50:59;;;;;;;14.52;7.07;;;0.00;99.90;;;;;;4973469;28;20042;-79
2022/12/18 02:53:31;;;;;;;14.93;6.55;;;0.00;99.90;;;;;;4972286;28;20044;-79
2022/12/18 02:56:04;;;;;;;12.95;6.95;;;0.10;99.90;;;;;;4976694;28;20422;-79
2022/12/18 02:58:41;;;;;;;13.13;6.13;;;0.10;99.90;;;;;;4984806;28;20577;-79
2022/12/18 03:01:17;;;;;;;14.00;6.95;;;0.20;99.90;;;;;;4971710;28;20042;-79
2022/12/18 03:03:48;;;;;;;12.93;6.63;;;0.20;99.90;;;;;;4979806;28;20046;-80
2022/12/18 03:06:22;;;;;;;14.48;7.15;;;0.20;99.90;;;;;;4972689;28;20066;-79
2022/12/18 03:08:54;;;;;;;11.88;6.25;;;0.30;99.90;;;;;;4972491;28;20417;-79
2022/12/18 03:12:22;;;;;;;11.48;6.13;;;0.30;99.90;;;;;;4972737;28;20062;-79
2022/12/18 03:14:14;;;;;;;15.00;6.80;;;0.30;99.90;;;;;;4993164;28;20050;-80
2022/12/18 03:16:42;;;;;;;12.18;7.10;;;0.30;99.90;;;;;;4964409;28;20049;-80
2022/12/18 03:19:12;;;;;;;14.35;6.00;;;0.30;99.90;;;;;;4972576;28;20133;-79
2022/12/18 03:21:43;;;;;;;15.07;6.85;;;0.40;99.90;;;;;;4990289;28;20046;-79
2022/12/18 03:24:11;;;;;;;12.10;6.32;;;0.40;99.90;;;;;;4990004;28;20117;-79
2022/12/18 03:26:42;;;;;;;12.27;6.10;;;0.40;99.90;;;;;;4971997;28;20622;-79
2022/12/18 03:29:13;;;;;;;12.77;6.50;;;0.40;99.90;;;;;;4970046;28;20078;-79
2022/12/18 03:31:42;;;;;;;12.57;6.45;;;0.40;99.90;;;;;;4991897;28;20125;-79
2022/12/18 03:34:12;;;;;;;11.93;6.18;;;0.50;99.90;;;;;;4989305;28;20042;-79
2022/12/18 03:36:43;;;;;;;14.25;6.43;;;0.50;99.90;;;;;;4972175;28;20478;-79
2022/12/18 03:39:10;;;;;;;11.07;5.68;;;0.50;99.90;;;;;;4988082;28;20149;-79
2022/12/18 03:41:44;;;;;;;11.68;6.25;;;0.50;99.90;;;;;;4972025;28;20085;-79
2022/12/18 03:44:42;;;;;;;11.48;5.15;;;0.50;99.90;;;;;;4986206;28;20046;-79
2022/12/18 03:47:14;;;;;;;11.75;5.90;;;0.70;99.90;;;;;;4978460;28;20048;-79
2022/12/18 03:49:48;;;;;;;12.07;6.00;;;0.50;99.90;;;;;;4970322;28;20057;-80
2022/12/18 03:52:18;;;;;;;11.25;5.65;;;0.50;99.90;;;;;;4987624;28;20050;-80
2022/12/18 03:54:46;;;;;;;10.55;5.45;;;0.50;99.90;;;;;;4971787;28;20042;-79
2022/12/18 03:57:19;;;;;;;11.95;5.28;;;0.50;99.90;;;;;;4971973;28;20474;-79
2022/12/18 03:59:50;;;;;;;;;;;0.50;99.90;;;;;;4972580;28;20046;-79
2022/12/18 04:02:19;;;;;;;9.63;5.25;;;0.50;99.90;;;;;;4971942;28;19931;-81
2022/12/18 04:04:49;;;;;;;10.18;5.47;;;0.50;99.90;;;;;;5024081;23;20054;-81
2022/12/18 04:07:17;;;;;;;10.27;5.30;;;0.50;99.90;;;;;;4989638;28;20141;-80
2022/12/18 04:09:46;;;;;;;10.43;5.43;;;0.60;99.90;;;;;;4998947;28;20050;-80
2022/12/18 04:12:14;;;;;;;11.55;5.32;;;0.60;99.90;;;;;;4991426;28;20100;-80
2022/12/18 04:14:41;;;;;;;12.20;5.72;;;0.60;99.90;;;;;;4990048;28;20046;-80
2022/12/18 04:17:11;;;;;;;10.98;5.53;;;0.60;99.90;;;;;;4990365;28;20789;-80
2022/12/18 04:19:38;;;;;;;9.35;5.15;;;0.60;99.90;;;;;;4991878;28;20053;-80
2022/12/18 04:22:05;;;;;;;9.70;5.28;;;0.60;99.90;;;;;;4993444;28;20056;-80
2022/12/18 04:24:38;;;;;;;10.18;5.15;;;0.70;99.90;;;;;;4995959;28;20051;-79
2022/12/18 04:27:15;;;;;;;11.40;5.20;;;0.70;99.90;;;;;;4997797;28;20411;-80
2022/12/18 04:29:47;;;;;;;10.00;5.20;;;0.70;99.90;;;;;;4994985;28;20054;-80
2022/12/18 04:32:16;;;;;;;10.20;4.97;;;0.70;99.90;;;;;;5013032;28;20123;-80
2022/12/18 04:34:45;;;;;;;9.25;5.18;;;0.70;99.90;;;;;;4994279;28;20081;-80
2022/12/18 04:37:12;;;;;;;12.88;5.03;;;0.70;99.90;;;;;;4998831;28;20130;-80
2022/12/18 04:39:39;;;;;;;8.98;4.30;;;0.70;99.90;;;;;;4994002;28;20042;-80
2022/12/18 04:42:13;;;;;;;11.90;4.88;;;0.70;99.90;;;;;;4994940;28;20166;-80
2022/12/18 04:44:39;;;;;;;10.38;5.45;;;0.80;99.90;;;;;;5012527;28;20075;-80
2022/12/18 04:47:07;;;;;;;10.77;5.25;;;0.90;99.90;;;;;;5012389;28;20505;-80
2022/12/18 04:49:35;;;;;;;9.75;5.03;;;0.80;99.90;;;;;;5014720;28;20097;-80
2022/12/18 04:52:02;;;;;;;9.52;4.80;;;0.80;99.90;;;;;;5021998;28;20060;-80
2022/12/18 04:54:29;;;;;;;10.10;5.05;;;0.80;99.90;;;;;;5004526;28;20049;-80
2022/12/18 04:56:56;;;;;;;11.18;5.43;;;0.80;99.90;;;;;;5012189;28;20226;-80
2022/12/18 04:59:23;;;;;;;10.00;4.82;;;0.80;99.90;;;;;;5012221;28;20057;-80
2022/12/18 05:01:50;;;;;;;10.02;5.25;;;0.80;99.90;;;;;;5011973;28;22051;-79
2022/12/18 05:04:16;;;;;;;10.30;4.90;;;0.80;99.90;;;;;;5016574;28;20030;-80
2022/12/18 05:06:45;;;;;;;11.05;5.88;;;0.80;99.90;;;;;;5030075;28;20045;-79
2022/12/18 05:09:11;;;;;;;9.55;4.85;;;0.70;99.90;;;;;;5031948;28;20037;-80
2022/12/18 05:11:38;;;;;;;12.18;4.95;;;0.70;99.90;;;;;;5010560;28;20050;-80
2022/12/18 05:14:05;;;;;;;9.35;5.22;;;0.70;99.90;;;;;;5007515;28;20349;-80
2022/12/18 05:16:32;;;;;;;10.63;5.50;;;0.70;99.90;;;;;;5012089;28;20045;-80
2022/12/18 05:18:59;;;;;;;9.73;4.70;;;0.70;99.90;;;;;;4996937;28;20123;-79
2022/12/18 05:21:26;;;;;;;10.50;5.18;;;0.70;99.90;;;;;;5021670;28;20044;-80
2022/12/18 05:23:54;;;;;;;11.52;5.43;;;0.70;99.90;;;;;;5031522;28;20056;-79
2022/12/18 05:26:21;;;;;;;10.80;4.65;;;0.80;99.90;;;;;;5030150;28;20049;-80
2022/12/18 05:28:48;;;;;;;10.38;4.82;;;0.80;99.90;;;;;;5011371;28;20490;-80
2022/12/18 05:31:15;;;;;;;8.70;4.65;;;0.80;99.90;;;;;;5010399;28;20077;-80
2022/12/18 05:33:42;;;;;;;9.35;4.88;;;0.80;99.90;;;;;;5019213;28;20041;-81
2022/12/18 05:36:10;;;;;;;9.25;4.53;;;0.80;99.90;;;;;;5027119;28;20547;-81
2022/12/18 05:38:38;;;;;;;8.98;4.55;;;0.80;99.90;;;;;;5031298;28;20049;-82
2022/12/18 05:41:07;;;;;;;10.95;4.72;;;0.80;99.90;;;;;;5031420;28;20057;-82
2022/12/18 05:43:35;;;;;;;10.27;4.57;;;0.80;99.90;;;;;;5031175;28;20513;-81
2022/12/18 05:46:05;;;;;;;8.48;4.20;;;0.80;99.90;;;;;;5014142;28;20066;-82
2022/12/18 05:48:32;;;;;;;9.38;4.53;;;0.80;99.90;;;;;;5017902;28;20375;-81
2022/12/18 05:51:05;;;;;;;9.15;4.00;;;0.80;99.90;;;;;;5025694;28;20137;-82
2022/12/18 05:53:32;;;;;;;10.55;4.75;;;0.80;99.90;;;;;;5010978;28;20061;-82
2022/12/18 05:56:01;;;;;;;9.50;3.85;;;0.80;99.90;;;;;;5011382;28;20144;-81
2022/12/18 05:58:29;;;;;;;9.57;4.40;;;0.80;99.90;;;;;;5011638;28;20041;-81
2022/12/18 06:00:56;;;;;;;10.63;4.40;;;0.80;99.90;;;;;;5003268;28;20042;-83
2022/12/18 06:03:23;;;;;;;7.55;3.83;;;0.80;99.90;;;;;;5010719;28;20041;-82
2022/12/18 06:05:51;;;;;;;8.85;4.22;;;0.80;99.90;;;;;;5011202;28;20041;-83
2022/12/18 06:08:17;;;;;;;9.55;4.60;;;0.80;99.90;;;;;;5011107;28;20116;-82
2022/12/18 06:10:52;;;;;;;8.45;4.32;;;0.80;99.90;;;;;;5011303;28;20052;-83
2022/12/18 06:13:19;;;;;;;7.18;3.80;;;0.70;99.90;;;;;;5010736;28;20052;-81
2022/12/18 06:15:47;;;;;;;8.65;4.40;;;0.70;99.90;;;;;;5022696;28;20037;-83
2022/12/18 06:18:14;;;;;;;8.00;4.18;;;0.70;99.90;;;;;;5009515;28;20052;-82
2022/12/18 06:20:41;;;;;;;8.10;3.85;;;0.70;99.90;;;;;;5010855;28;20046;-83
2022/12/18 06:23:09;;;;;;;8.43;4.25;;;0.60;99.90;;;;;;5010872;28;20052;-82
2022/12/18 06:25:38;;;;;;;9.50;4.60;;;0.60;99.90;;;;;;5007320;28;20056;-82
2022/12/18 06:28:05;;;;;;;8.45;4.25;;;0.50;99.90;;;;;;5016149;28;20041;-82
2022/12/18 06:30:32;;;;;;;8.05;3.80;;;0.50;99.90;;;;;;5016244;28;20045;-82
2022/12/18 06:33:01;;;;;;;9.38;4.10;;;0.40;99.90;;;;;;5022159;28;20487;-82
2022/12/18 06:35:28;;;;;;;8.93;4.20;;;0.40;99.90;;;;;;5002018;28;20034;-82
2022/12/18 06:37:54;;;;;;;8.75;4.20;;;0.30;99.90;;;;;;5004041;28;20056;-83
2022/12/18 06:40:22;;;;;;;7.72;3.70;;;0.30;99.90;;;;;;5010630;28;20056;-83
2022/12/18 06:42:49;;;;;;;8.68;4.28;;;0.30;99.90;;;;;;5014651;28;20041;-83
2022/12/18 06:45:16;;;;;;;8.32;4.43;;;0.20;99.90;;;;;;5021901;28;20044;-82
2022/12/18 06:47:43;;;;;;;8.13;4.05;;;0.20;99.90;;;;;;5010022;28;20049;-81
2022/12/18 06:50:11;;;;;;;7.80;3.90;;;0.10;99.90;;;;;;5010566;28;20092;-80
2022/12/18 06:52:38;;;;;;;9.02;3.72;;;0.10;99.90;;;;;;5009692;28;20593;-81
2022/12/18 06:55:09;;;;;;;9.38;4.07;;;0.10;99.90;;;;;;5001924;28;20038;-80
2022/12/18 06:57:36;;;;;;;7.28;3.72;;;0.10;99.90;;;;;;5017538;28;20046;-81
2022/12/18 07:00:04;;;;;;;10.05;4.22;;;0.10;99.90;;;;;;5024461;28;20052;-81
2022/12/18 07:02:31;;;;;;;7.28;3.58;;;0.10;99.90;;;;;;5029542;28;20052;-81
2022/12/18 07:04:57;;;;;;;9.30;3.85;;;0.00;99.90;;;;;;5008810;28;20058;-81
2022/12/18 07:07:26;;;;;;;9.10;4.07;;;0.00;99.90;;;;;;5009052;28;20042;-81
2022/12/18 07:09:53;;;;;;;9.00;3.95;;;0.00;99.90;;;;;;5001465;28;20047;-81
2022/12/18 07:12:19;;;;;;;7.63;3.95;;;0.00;99.90;;;;;;4989758;28;20145;-83
2022/12/18 07:14:46;;;;;;;9.10;4.20;;;0.00;99.90;;;;;;5025032;28;20041;-82
2022/12/18 07:17:13;;;;;;;10.65;3.70;;;0.00;99.90;;;;;;5029449;28;20517;-81
2022/12/18 07:19:40;;;;;;;8.32;3.97;;;-0.10;99.90;;;;;;5029576;28;20045;-80
2022/12/18 07:22:07;;;;;;;7.40;3.67;;;-0.10;99.90;;;;;;5029852;28;20045;-81
2022/12/18 07:24:35;;;;;;;9.48;4.20;;;-0.10;99.90;;;;;;5018466;28;20444;-81
2022/12/18 07:27:02;;;;;;;7.95;3.75;;;-0.10;99.90;;;;;;5004746;28;20501;-81
2022/12/18 07:29:29;;;;;;;9.60;4.20;;;0.00;99.90;;;;;;5008061;28;20045;-79
2022/12/18 07:31:56;;;;;;;10.00;4.72;;;0.10;99.90;;;;;;5009956;28;20391;-84
2022/12/18 07:34:23;;;;;;;8.70;4.40;;;0.10;99.90;;;;;;5009280;28;20121;-82
2022/12/18 07:36:50;;;;;;;8.15;4.20;;;0.10;99.90;;;;;;5008049;28;20042;-83
2022/12/18 07:39:17;;;;;;;7.45;3.75;;;0.10;99.90;;;;;;5017677;28;20061;-84
2022/12/18 07:42:30;;;;;;;10.13;4.20;;;0.20;99.90;;;;;;5015722;28;20041;-86
2022/12/18 07:44:35;;;;;;;9.30;3.90;;;0.20;99.90;;;;;;5006699;28;20141;-84
2022/12/18 07:47:02;;;;;;;9.27;4.13;;;0.20;99.90;;;;;;5009198;28;20052;-82
2022/12/18 07:49:29;;;;;;;9.82;4.43;;;0.20;99.90;;;;;;4990538;28;20049;-82
2022/12/18 07:51:56;;;;;;;10.77;5.05;;;0.20;99.90;;;;;;5014187;28;20056;-81
2022/12/18 07:54:23;;;;;;;10.95;4.72;;;0.30;99.90;;;;;;5018060;28;20041;-84
2022/12/18 07:56:52;;;;;;;9.27;4.63;;;0.30;99.90;;;;;;5008925;28;20081;-82
2022/12/18 07:59:24;;;;;;;9.43;4.72;;;0.30;99.90;;;;;;4989915;28;20062;-86
2022/12/18 08:01:51;;;;;;;10.30;4.43;;;0.40;99.90;;;;;;5008266;28;20421;-81
2022/12/18 08:04:18;;;;;;;9.95;5.00;;;0.40;99.90;;;;;;5008811;28;20438;-82
2022/12/18 08:06:45;;;;;;;11.88;5.70;;;0.50;99.90;;;;;;5009817;28;20072;-85
2022/12/18 08:09:12;;;;;;;11.07;5.35;;;0.50;99.90;;;;;;5009998;28;20041;-86
2022/12/18 08:11:39;;;;;;;10.90;5.30;;;0.50;99.90;;;;;;5008906;28;20046;-88
2022/12/18 08:14:08;;;;;;;13.13;5.05;;;0.50;99.90;;;;;;5004014;28;20113;-86
2022/12/18 08:16:35;;;;;;;10.93;5.05;;;0.50;99.90;;;;;;4999367;28;20056;-85
2022/12/18 08:19:02;;;;;;;13.18;6.35;;;0.50;99.90;;;;;;5001764;28;20494;-86
2022/12/18 08:21:30;;;;;;;12.05;6.05;;;0.50;99.90;;;;;;5002977;28;20050;-86
2022/12/18 08:23:58;;;;;;;9.82;5.25;;;0.50;99.90;;;;;;4997977;28;20052;-86
2022/12/18 08:26:27;;;;;;;12.77;5.90;;;0.60;99.90;;;;;;5005947;28;20030;-87
2022/12/18 08:28:55;;;;;;;10.63;5.15;;;0.60;99.90;;;;;;5007650;28;20052;-88
2022/12/18 08:31:23;;;;;;;10.25;4.82;;;0.70;99.90;;;;;;5006663;28;20049;-87
2022/12/18 08:33:51;;;;;;;10.27;5.75;;;0.70;99.90;;;;;;5008569;28;20064;-88
2022/12/18 08:36:18;;;;;;;12.57;5.72;;;0.80;99.90;;;;;;5005958;28;20038;-88
2022/12/18 08:38:45;;;;;;;13.20;6.53;;;0.80;99.90;;;;;;5015135;28;20041;-88
2022/12/18 08:41:14;;;;;;;11.23;5.07;;;0.90;99.90;;;;;;5008781;28;20121;-90
2022/12/18 08:46:28;;;;;;;11.63;4.55;;;0.90;99.90;;;;;;4997385;28;20388;-87
2022/12/18 08:48:55;;;;;;;9.23;4.55;;;1.00;99.90;;;;;;5000618;28;20045;-87
2022/12/18 08:51:23;;;;;;;10.07;4.53;;;1.00;99.90;;;;;;5017760;28;20056;-82
2022/12/18 08:53:50;;;;;;;10.00;4.13;;;1.10;99.90;;;;;;4992217;28;20042;-85
2022/12/18 08:56:17;;;;;;;8.52;4.15;;;1.10;99.90;;;;;;5003767;28;20048;-85
2022/12/18 08:58:44;;;;;;;9.35;4.28;;;1.10;99.90;;;;;;5007978;28;20054;-85
2022/12/18 09:01:13;;;;;;;9.70;4.60;;;1.20;99.90;;;;;;4990372;28;20454;-85
2022/12/18 09:03:41;;;;;;;8.05;4.00;;;1.20;99.90;;;;;;5003040;28;20038;-84
2022/12/18 09:06:08;;;;;;;8.82;4.32;;;1.30;99.90;;;;;;5012337;28;20127;-85
2022/12/18 09:08:36;;;;;;;8.25;3.80;;;1.40;99.90;;;;;;5011281;28;20050;-85
2022/12/18 09:11:03;;;;;;;8.75;4.07;;;1.40;99.90;;;;;;5012176;28;20084;-85
2022/12/18 09:13:30;;;;;;;10.20;3.85;;;1.50;99.90;;;;;;5013058;28;20067;-84
2022/12/18 09:15:57;;;;;;;7.82;3.95;;;1.50;99.90;;;;;;5024368;28;20037;-85
2022/12/18 09:18:25;;;;;;;8.50;3.90;;;1.50;99.90;;;;;;5013948;28;20038;-84
2022/12/18 09:20:53;;;;;;;9.00;3.97;;;1.60;99.90;;;;;;5010785;28;20406;-85
2022/12/18 09:23:20;;;;;;;8.88;3.80;;;1.60;99.90;;;;;;5011805;28;20050;-85
2022/12/18 09:25:48;;;;;;;7.22;3.70;;;1.70;99.80;;;;;;5010922;28;20048;-85
2022/12/18 09:28:19;;;;;;;8.55;3.60;;;1.70;99.90;;;;;;5018396;28;20563;-84
2022/12/18 09:30:46;;;;;;;;;;;1.70;99.70;;;;;;5019714;28;20141;-85
2022/12/18 09:33:13;;;;;;;8.10;3.70;;;1.80;99.30;;;;;;5011779;28;19925;-85
2022/12/18 09:35:41;;;;;;;7.75;3.78;;;1.80;99.10;;;;;;5010191;28;20394;-85
2022/12/18 09:38:12;;;;;;;8.23;4.00;;;1.90;99.40;;;;;;5007001;28;20064;-85
2022/12/18 09:40:44;;;;;;;9.55;4.13;;;1.90;99.50;;;;;;5011538;28;20050;-85
2022/12/18 09:43:14;;;;;;;9.93;4.18;;;2.00;99.30;;;;;;5018630;28;20410;-85
2022/12/18 09:45:44;;;;;;;8.52;3.85;;;2.00;98.60;;;;;;5015588;28;20044;-85
2022/12/18 09:48:17;;;;;;;7.67;3.60;;;2.10;98.10;;;;;;5020761;28;20050;-85
2022/12/18 09:50:45;;;;;;;6.85;3.33;;;2.10;98.10;;;;;;5007571;28;20083;-85
2022/12/18 09:53:18;;;;;;;8.15;3.70;;;2.10;96.90;;;;;;5018603;28;20048;-85
2022/12/18 09:55:47;;;;;;;8.95;3.60;;;2.20;97.30;;;;;;5003676;28;20402;-85
2022/12/18 09:58:20;;;;;;;7.60;3.45;;;2.20;97.20;;;;;;5027134;28;20049;-84
2022/12/18 10:00:47;;;;;;;7.68;3.72;;;2.30;96.80;;;;;;5004714;28;20529;-85
2022/12/18 10:03:16;;;;;;;7.72;3.50;;;2.30;96.30;;;;;;5026716;22;20041;-89
2022/12/18 10:05:50;;;;;;;8.48;3.67;;;2.30;97.10;;;;;;4971256;28;20077;-89
2022/12/18 10:08:25;;;;;;;8.07;3.88;;;2.40;96.70;;;;;;4971832;28;20043;-88
2022/12/18 10:10:54;;;;;;;8.70;3.65;;;2.40;95.60;;;;;;4985587;28;20050;-88
2022/12/18 10:13:25;;;;;;;7.25;3.78;;;2.40;95.40;;;;;;4991602;28;20121;-90
2022/12/18 10:16:09;;;;;;;7.30;3.65;;;2.50;95.00;;;;;;5001310;28;20049;-89
2022/12/18 10:19:00;;;;;;;8.73;3.67;;;2.50;95.00;;;;;;4973463;28;20465;-88
2022/12/18 10:21:35;;;;;;;9.63;3.90;;;2.60;94.10;;;;;;4974075;28;20050;-91
2022/12/18 10:24:15;;;;;;;9.43;4.30;;;2.70;93.80;;;;;;4991553;28;20100;-90
2022/12/18 10:26:43;;;;;;;7.60;3.67;;;2.70;94.30;;;;;;4972413;28;20093;-91
2022/12/18 10:29:13;;;;;;;7.95;4.18;;;2.80;94.50;;;;;;4995866;28;20049;-91
2022/12/18 10:31:40;;;;;;;8.73;4.10;;;2.80;93.70;;;;;;4991466;28;20035;-89
2022/12/18 10:34:10;;;;;;;7.70;4.20;;;2.80;93.70;;;;;;4975229;28;20136;-89
2022/12/18 10:36:38;;;;;;;8.73;4.20;;;2.80;93.80;;;;;;4990602;28;20073;-89
2022/12/18 10:39:22;;;;;;;9.45;4.00;;;2.90;93.50;;;;;;4991109;28;20073;-90
2022/12/18 10:41:52;;;;;;;8.05;4.07;;;2.90;92.90;;;;;;4973828;28;20056;-89
2022/12/18 10:44:21;;;;;;;7.60;4.43;;;3.00;93.00;;;;;;4965720;28;20038;-88
2022/12/18 10:46:50;;;;;;;8.90;4.43;;;3.00;92.70;;;;;;4998609;28;20125;-90
2022/12/18 10:49:23;;;;;;;9.25;4.43;;;3.00;92.50;;;;;;5004158;28;20045;-90
2022/12/18 10:51:50;;;;;;;9.15;4.60;;;3.10;92.80;;;;;;4989935;28;20054;-90
2022/12/18 10:54:20;;;;;;;9.15;4.65;;;3.10;92.40;;;;;;4991174;28;20046;-92
2022/12/18 10:56:48;;;;;;;9.77;4.68;;;3.10;92.30;;;;;;4990416;28;20522;-90
2022/12/18 10:59:16;;;;;;;8.73;4.55;;;3.10;91.70;;;;;;4984404;28;20047;-86
2022/12/18 11:01:50;;;;;;;9.93;4.85;;;3.20;91.50;;;;;;4985490;28;20043;-91
2022/12/18 11:04:22;;;;;;;10.77;4.53;;;3.20;91.30;;;;;;5000494;28;20077;-87
2022/12/18 11:06:58;;;;;;;9.90;4.57;;;3.30;91.90;;;;;;4997844;28;20130;-84
2022/12/18 11:09:28;;;;;;;8.13;4.35;;;3.30;91.80;;;;;;4989819;28;20046;-84
2022/12/18 11:11:56;;;;;;;9.25;4.75;;;3.30;91.90;;;;;;4989158;28;20054;-83
2022/12/18 11:14:25;;;;;;;11.07;4.95;;;3.30;91.40;;;;;;4989197;28;20034;-82
2022/12/18 11:16:53;;;;;;;11.57;4.90;;;3.30;90.90;;;;;;4986007;28;20057;-83
2022/12/18 11:19:29;;;;;;;10.27;4.82;;;3.40;90.90;;;;;;4986697;28;20046;-79
2022/12/18 11:21:57;;;;;;;9.70;5.00;;;3.40;91.50;;;;;;4986570;28;22150;-79
2022/12/18 11:24:29;;;;;;;10.45;5.45;;;3.40;91.00;;;;;;4990009;28;20046;-80
2022/12/18 11:26:57;;;;;;;11.15;5.25;;;3.50;90.30;;;;;;4989542;28;20049;-80
2022/12/18 11:29:28;;;;;;;12.30;6.18;;;3.50;91.00;;;;;;4990150;28;20046;-79
2022/12/18 11:32:02;;;;;;;;;;;3.50;91.90;;;;;;4989165;28;20125;-80
2022/12/18 11:34:32;;;;;;;10.98;5.57;;;3.70;91.70;;;;;;4990086;28;19921;-80
2022/12/18 11:37:00;;;;;;;10.63;5.43;;;3.50;91.60;;;;;;4998172;28;20061;-80
2022/12/18 11:39:38;;;;;;;12.13;5.50;;;3.60;91.10;;;;;;4989358;28;20454;-80
2022/12/18 11:42:11;;;;;;;10.63;5.47;;;3.60;91.60;;;;;;4989716;28;20046;-81
2022/12/18 11:44:47;;;;;;;10.18;5.13;;;3.60;91.40;;;;;;4989388;28;20455;-82
2022/12/18 11:47:20;;;;;;;10.73;5.43;;;3.60;90.90;;;;;;4982469;28;20050;-80
2022/12/18 11:49:49;;;;;;;11.18;5.50;;;3.70;90.70;;;;;;4986957;28;20065;-80
2022/12/18 11:52:19;;;;;;;12.88;5.47;;;3.80;91.70;;;;;;4987263;28;20046;-79
2022/12/18 11:54:52;;;;;;;8.60;4.53;;;3.70;91.10;;;;;;4988106;28;20050;-79
2022/12/18 11:57:27;;;;;;;9.13;4.60;;;3.70;91.10;;;;;;4989101;28;20158;-80
2022/12/18 11:59:57;;;;;;;12.40;5.10;;;3.70;91.40;;;;;;4987971;28;20052;-80
2022/12/18 12:02:36;;;;;;;8.98;4.60;;;3.80;91.80;;;;;;4995247;28;20047;-80
2022/12/18 12:05:24;;;;;;;9.13;4.38;;;3.80;91.50;;;;;;4985482;28;20121;-80
2022/12/18 12:07:59;;;;;;;11.95;5.13;;;3.80;91.10;;;;;;4985934;28;20116;-80
2022/12/18 12:10:38;;;;;;;9.63;4.55;;;3.80;90.10;;;;;;4986838;28;20120;-79
2022/12/18 12:13:25;;;;;;;9.18;4.38;;;3.90;90.90;;;;;;4971292;28;20529;-80
2022/12/18 12:16:00;;;;;;;9.02;4.20;;;3.90;90.40;;;;;;4986672;28;20046;-80
2022/12/18 12:18:36;;;;;;;10.63;4.60;;;3.90;90.10;;;;;;4988207;28;20042;-79
2022/12/18 12:21:07;;;;;;;9.48;4.40;;;4.00;90.60;;;;;;4989116;28;20517;-81
2022/12/18 12:23:40;;;;;;;9.75;4.10;;;4.00;89.50;;;;;;4987145;28;20052;-86
2022/12/18 12:26:12;;;;;;;10.07;3.92;;;4.00;88.40;;;;;;4988084;28;20483;-84
2022/12/18 12:29:02;;;;;;;10.05;4.70;;;4.10;89.30;;;;;;4987611;28;20134;-82
2022/12/18 12:31:42;;;;;;;9.53;4.40;;;4.10;89.10;;;;;;4988838;28;20128;-82
2022/12/18 12:34:18;;;;;;;9.88;4.95;;;4.10;88.10;;;;;;4986484;28;20403;-82
2022/12/18 12:36:55;;;;;;;9.50;4.60;;;4.10;89.10;;;;;;4988586;28;20050;-82
2022/12/18 12:39:24;;;;;;;9.55;4.78;;;4.10;89.30;;;;;;4986821;28;20117;-82
2022/12/18 12:44:43;;;;;;;10.05;4.70;;;4.10;90.40;;;;;;4994684;28;20125;-82
2022/12/18 12:47:15;;;;;;;10.48;5.22;;;4.10;90.70;;;;;;4992087;28;20475;-82
2022/12/18 12:49:47;;;;;;;9.30;4.70;;;4.10;90.90;;;;;;4992789;28;20042;-81
2022/12/18 12:52:17;;;;;;;8.90;4.70;;;4.10;90.60;;;;;;4988819;28;20100;-82
2022/12/18 12:54:44;;;;;;;11.70;5.38;;;4.20;90.40;;;;;;4989516;28;20054;-82
2022/12/18 12:57:17;;;;;;;12.25;5.93;;;4.20;90.30;;;;;;4990862;28;20042;-82
2022/12/18 12:59:50;;;;;;;11.05;6.00;;;4.20;90.20;;;;;;4992287;28;20056;-82
2022/12/18 13:02:23;;;;;;;12.77;5.82;;;4.10;89.90;;;;;;4992219;28;20140;-82
2022/12/18 13:04:53;;;;;;;10.63;5.68;;;4.20;91.30;;;;;;4991761;28;20049;-82
2022/12/18 13:07:26;;;;;;;10.60;5.47;;;4.20;91.40;;;;;;4990738;28;20057;-82